createdAt,value
2022-11-05T00:02:27.631Z,69.81
2022-11-05T00:06:48.200Z,69.39
2022-11-05T00:10:51.803Z,69.25
2022-11-05T00:15:12.688Z,69.39
2022-11-05T00:19:18.009Z,68.93
2022-11-05T00:23:38.552Z,69.13
2022-11-05T00:27:42.277Z,68.93
2022-11-05T00:31:45.893Z,68.91
2022-11-05T00:35:50.849Z,69.03
2022-11-05T00:39:53.868Z,69.16
2022-11-05T00:44:14.788Z,69.51
2022-11-05T00:48:35.295Z,69.20
2022-11-05T00:52:59.907Z,69.82
2022-11-05T00:57:04.810Z,69.87
2022-11-05T01:01:08.841Z,69.82
2022-11-05T01:05:12.419Z,69.96
2022-11-05T01:09:17.314Z,70.12
2022-11-05T01:13:22.265Z,70.20
2022-11-05T01:17:25.995Z,70.05
2022-11-05T01:21:29.362Z,70.00
2022-11-05T01:25:34.073Z,70.22
2022-11-05T01:29:37.565Z,70.34
2022-11-05T01:33:41.072Z,70.57
2022-11-05T01:37:44.954Z,70.90
2022-11-05T01:41:49.390Z,71.37
2022-11-05T01:45:55.243Z,71.37
2022-11-05T01:50:02.414Z,71.11
2022-11-05T01:54:09.070Z,71.08
2022-11-05T01:58:19.325Z,71.27
2022-11-05T02:02:22.539Z,70.98
2022-11-05T02:06:29.449Z,70.74
2022-11-05T02:10:34.769Z,71.06
2022-11-05T02:14:39.928Z,70.82
2022-11-05T02:18:53.644Z,71.10
2022-11-05T02:23:35.237Z,70.96
2022-11-05T02:28:05.296Z,70.69
2022-11-05T02:32:19.502Z,71.08
2022-11-05T02:36:36.124Z,70.67
2022-11-05T02:40:49.062Z,71.00
2022-11-05T02:45:02.392Z,70.93
2022-11-05T02:49:13.850Z,71.15
2022-11-05T02:53:22.330Z,71.16
2022-11-05T02:57:25.882Z,71.40
2022-11-05T03:01:29.038Z,71.32
2022-11-05T03:05:42.257Z,70.82
2022-11-05T03:10:07.238Z,70.75
2022-11-05T03:14:22.250Z,70.59
2022-11-05T03:18:35.915Z,70.66
2022-11-05T03:22:44.895Z,70.15
2022-11-05T03:26:56.939Z,70.63
2022-11-05T03:31:01.390Z,70.59
2022-11-05T03:35:10.210Z,70.56
2022-11-05T03:39:19.768Z,70.61
2022-11-05T03:43:26.745Z,70.62
2022-11-05T03:47:34.011Z,70.57
2022-11-05T03:51:45.453Z,70.43
2022-11-05T03:55:55.110Z,70.94
2022-11-05T03:59:59.296Z,70.96
2022-11-05T04:04:02.387Z,71.28
2022-11-05T04:08:38.203Z,70.88
2022-11-05T04:13:00.715Z,71.37
2022-11-05T04:17:23.308Z,71.39
2022-11-05T04:21:44.143Z,71.55
2022-11-05T04:25:47.512Z,71.26
2022-11-05T04:30:09.461Z,71.27
2022-11-05T04:34:12.449Z,71.12
2022-11-05T04:38:17.656Z,71.24
2022-11-05T04:42:20.730Z,71.33
2022-11-05T04:46:25.526Z,71.36
2022-11-05T04:50:28.798Z,71.70
2022-11-05T04:54:32.294Z,71.64
2022-11-05T04:58:35.615Z,72.04
2022-11-05T05:02:40.561Z,72.30
2022-11-05T05:06:43.594Z,72.27
2022-11-05T05:10:47.314Z,72.12
2022-11-05T05:14:50.399Z,72.64
2022-11-05T05:18:55.919Z,72.43
2022-11-05T05:22:58.982Z,72.63
2022-11-05T05:27:02.465Z,72.78
2022-11-05T05:31:05.664Z,73.00
2022-11-05T05:35:11.872Z,72.50
2022-11-05T05:39:14.942Z,72.82
2022-11-05T05:43:18.527Z,72.80
2022-11-05T05:47:21.619Z,72.52
2022-11-05T05:51:26.569Z,72.70
2022-11-05T05:55:31.391Z,72.34
2022-11-05T05:59:34.430Z,72.37
2022-11-05T06:03:38.143Z,71.95
2022-11-05T06:07:42.655Z,71.66
2022-11-05T06:11:46.434Z,71.93
2022-11-05T06:15:49.501Z,71.31
2022-11-05T06:19:53.170Z,70.97
2022-11-05T06:23:57.551Z,70.82
2022-11-05T06:28:01.737Z,70.89
2022-11-05T06:32:06.965Z,70.90
2022-11-05T06:36:15.641Z,70.64
2022-11-05T06:40:21.133Z,70.40
2022-11-05T06:44:24.469Z,70.17
2022-11-05T06:48:27.899Z,69.86
2022-11-05T06:52:31.403Z,69.59
2022-11-05T06:56:36.349Z,69.68
2022-11-05T07:00:40.166Z,69.59
2022-11-05T07:04:43.471Z,70.09
2022-11-05T07:08:47.157Z,69.73
2022-11-05T07:12:51.770Z,69.64
2022-11-05T07:16:55.325Z,69.89
2022-11-05T07:21:00.173Z,69.93
2022-11-05T07:25:03.945Z,69.69
2022-11-05T07:29:08.458Z,70.06
2022-11-05T07:33:12.073Z,69.94
2022-11-05T07:37:17.201Z,69.48
2022-11-05T07:41:20.157Z,69.65
2022-11-05T07:45:25.921Z,69.52
2022-11-05T07:49:28.932Z,69.00
2022-11-05T07:53:32.396Z,69.10
2022-11-05T07:57:41.800Z,69.28
2022-11-05T08:01:47.061Z,68.88
2022-11-05T08:05:50.806Z,68.97
2022-11-05T08:09:54.307Z,68.25
2022-11-05T08:13:57.612Z,68.51
2022-11-05T08:18:03.881Z,68.69
2022-11-05T08:22:06.811Z,68.61
2022-11-05T08:26:10.300Z,68.69
2022-11-05T08:30:14.139Z,68.07
2022-11-05T08:34:19.104Z,67.78
2022-11-05T08:38:22.651Z,67.96
2022-11-05T08:42:26.234Z,68.25
2022-11-05T08:46:29.347Z,67.67
2022-11-05T08:50:35.540Z,66.93
2022-11-05T08:54:39.025Z,66.26
2022-11-05T08:58:42.075Z,66.35
2022-11-05T09:02:46.408Z,66.12
2022-11-05T09:06:51.939Z,65.43
2022-11-05T09:10:55.398Z,66.29
2022-11-05T09:14:58.570Z,66.78
2022-11-05T09:19:04.077Z,65.65
2022-11-05T09:23:09.287Z,66.78
2022-11-05T09:27:15.079Z,66.75
2022-11-05T09:31:18.117Z,65.59
2022-11-05T09:35:21.593Z,65.46
2022-11-05T09:39:26.416Z,65.96
2022-11-05T09:43:35.052Z,65.67
2022-11-05T09:47:43.085Z,65.24
2022-11-05T09:51:46.560Z,66.11
2022-11-05T09:55:55.501Z,65.46
2022-11-05T10:00:01.296Z,65.53
2022-11-05T10:04:10.632Z,65.29
2022-11-05T10:08:19.541Z,65.10
2022-11-05T10:12:27.685Z,65.10
2022-11-05T10:16:34.214Z,65.39
2022-11-05T10:20:39.839Z,65.28
2022-11-05T10:24:46.892Z,65.97
2022-11-05T10:28:53.012Z,65.67
2022-11-05T10:33:01.131Z,64.29
2022-11-05T10:41:54.030Z,64.84
2022-11-05T10:46:20.126Z,64.41
2022-11-05T10:50:34.019Z,63.54
2022-11-05T10:54:44.075Z,63.44
2022-11-05T10:58:59.677Z,63.25
2022-11-05T11:03:46.699Z,64.48
2022-11-05T11:08:26.021Z,62.16
2022-11-05T11:12:41.223Z,62.07
2022-11-05T11:16:57.956Z,60.72
2022-11-05T11:21:13.879Z,61.25
2022-11-05T11:25:28.734Z,62.28
2022-11-05T11:29:49.123Z,61.64
2022-11-05T11:34:01.300Z,61.71
2022-11-05T11:38:11.885Z,61.47
2022-11-05T11:42:23.162Z,61.72
2022-11-05T11:46:26.946Z,61.51
2022-11-05T11:50:40.541Z,62.20
2022-11-05T11:54:44.601Z,62.23
2022-11-05T11:58:51.331Z,63.19
2022-11-05T12:03:21.536Z,62.97
2022-11-05T12:07:37.225Z,62.13
2022-11-05T12:11:46.852Z,61.14
2022-11-05T12:15:54.426Z,61.45
2022-11-05T12:20:18.856Z,62.73
2022-11-05T12:24:39.425Z,62.21
2022-11-05T12:29:18.978Z,62.23
2022-11-05T12:33:39.622Z,62.08
2022-11-05T12:37:53.974Z,61.08
2022-11-05T12:42:03.205Z,62.15
2022-11-05T12:46:18.609Z,62.02
2022-11-05T12:50:33.009Z,62.29
2022-11-05T12:54:51.046Z,62.73
2022-11-05T12:59:01.116Z,63.24
2022-11-05T13:03:19.175Z,62.37
2022-11-05T13:07:30.535Z,62.57
2022-11-05T13:11:39.601Z,62.36
2022-11-05T13:15:51.145Z,62.54
2022-11-05T13:19:59.985Z,62.20
2022-11-05T13:24:11.423Z,60.70
2022-11-05T13:28:23.274Z,62.29
2022-11-05T13:32:32.619Z,61.79
2022-11-05T13:37:02.624Z,62.03
2022-11-05T13:41:19.794Z,61.64
2022-11-05T13:45:46.481Z,62.03
2022-11-05T13:50:26.132Z,61.84
2022-11-05T13:55:05.919Z,62.39
2022-11-05T13:59:39.026Z,62.23
2022-11-05T14:03:50.601Z,63.18
2022-11-05T14:07:54.900Z,62.59
2022-11-05T14:12:00.787Z,62.63
2022-11-05T14:16:07.180Z,62.60
2022-11-05T14:20:39.297Z,63.27
2022-11-05T14:24:44.409Z,62.75
2022-11-05T14:29:26.661Z,63.30
2022-11-05T14:33:39.250Z,63.75
2022-11-05T14:37:54.062Z,63.69
2022-11-05T14:42:02.494Z,63.95
2022-11-05T14:46:08.514Z,64.29
2022-11-05T14:50:20.002Z,64.21
2022-11-05T14:54:28.024Z,64.19
2022-11-05T14:58:35.993Z,63.69
2022-11-05T15:02:40.405Z,63.96
2022-11-05T15:07:14.366Z,64.34
2022-11-05T15:11:24.823Z,64.48
2022-11-05T15:15:31.812Z,64.61
2022-11-05T15:19:37.830Z,64.59
2022-11-05T15:23:44.944Z,64.76
2022-11-05T15:28:00.666Z,64.91
2022-11-05T15:32:04.355Z,65.14
2022-11-05T15:36:12.339Z,65.10
2022-11-05T15:40:24.851Z,65.21
2022-11-05T15:44:31.988Z,65.54
2022-11-05T15:48:37.613Z,66.12
2022-11-05T15:52:48.852Z,65.95
2022-11-05T15:56:55.307Z,65.99
2022-11-05T16:01:00.473Z,66.09
2022-11-05T16:05:11.645Z,66.28
2022-11-05T16:09:27.064Z,66.33
2022-11-05T16:13:35.556Z,66.39
2022-11-05T16:17:51.661Z,66.59
2022-11-05T16:21:56.097Z,66.37
2022-11-05T16:25:59.674Z,66.68
2022-11-05T16:30:02.802Z,66.94
2022-11-05T16:34:07.750Z,67.36
2022-11-05T16:38:14.893Z,67.15
2022-11-05T16:42:39.196Z,66.70
2022-11-05T16:46:44.921Z,67.08
2022-11-05T16:55:07.383Z,67.44
2022-11-05T16:59:13.816Z,67.11
2022-11-05T17:03:17.466Z,67.14
2022-11-05T17:07:20.991Z,67.26
2022-11-05T17:11:26.435Z,67.25
2022-11-05T17:15:34.647Z,67.94
2022-11-05T17:19:42.792Z,67.47
2022-11-05T17:23:45.819Z,67.71
2022-11-05T17:27:51.570Z,67.74
2022-11-05T17:31:54.638Z,67.60
2022-11-05T17:35:58.245Z,67.80
2022-11-05T17:40:01.877Z,67.74
2022-11-05T17:44:08.911Z,67.76
2022-11-05T17:48:12.650Z,67.43
2022-11-05T17:52:16.065Z,68.00
2022-11-05T17:56:32.502Z,67.69
2022-11-05T18:00:38.446Z,67.58
2022-11-05T18:04:42.274Z,67.65
2022-11-05T18:08:46.390Z,68.00
2022-11-05T18:12:49.701Z,68.45
2022-11-05T18:16:56.054Z,68.20
2022-11-05T18:20:59.051Z,68.13
2022-11-05T18:25:02.619Z,68.36
2022-11-05T18:29:07.016Z,68.72
2022-11-05T18:33:11.778Z,68.96
2022-11-05T18:37:15.454Z,68.90
2022-11-05T18:41:19.433Z,69.05
2022-11-05T18:45:29.410Z,69.52
2022-11-05T18:49:34.331Z,68.94
2022-11-05T18:53:37.850Z,69.15
2022-11-05T18:57:40.976Z,68.76
2022-11-05T19:01:45.373Z,69.29
2022-11-05T19:05:50.154Z,69.26
2022-11-05T19:09:54.031Z,69.08
2022-11-05T19:13:57.185Z,68.96
2022-11-05T19:18:00.274Z,69.39
2022-11-05T19:22:05.087Z,69.53
2022-11-05T19:26:09.534Z,69.61
2022-11-05T19:30:13.010Z,69.50
2022-11-05T19:34:16.857Z,69.49
2022-11-05T19:38:21.604Z,69.38
2022-11-05T19:42:25.358Z,69.44
2022-11-05T19:46:29.479Z,69.37
2022-11-05T19:50:33.103Z,69.26
2022-11-05T19:54:38.902Z,69.31
2022-11-05T19:58:42.847Z,69.31
2022-11-05T20:02:47.695Z,69.07
2022-11-05T20:06:51.690Z,69.28
2022-11-05T20:10:57.060Z,69.44
2022-11-05T20:15:00.830Z,69.15
2022-11-05T20:19:06.361Z,69.43
2022-11-05T20:23:09.715Z,69.29
2022-11-05T20:27:17.144Z,69.44
2022-11-05T20:31:21.265Z,69.54
2022-11-05T20:35:25.893Z,69.05
2022-11-05T20:39:31.166Z,69.75
2022-11-05T20:43:36.304Z,70.21
2022-11-05T20:47:40.103Z,70.10
2022-11-05T20:51:44.167Z,70.38
2022-11-05T20:55:49.411Z,70.44
2022-11-05T20:59:54.817Z,69.78
2022-11-05T21:04:02.530Z,70.17
2022-11-05T21:08:08.315Z,70.54
2022-11-05T21:12:11.636Z,70.42
2022-11-05T21:16:19.137Z,70.52
2022-11-05T21:20:23.540Z,70.85
2022-11-05T21:24:26.544Z,71.11
2022-11-05T21:28:30.311Z,70.66
2022-11-05T21:32:34.825Z,70.71
2022-11-05T21:36:38.419Z,70.70
2022-11-05T21:40:42.247Z,70.74
2022-11-05T21:44:45.730Z,70.83
2022-11-05T21:48:50.157Z,70.41
2022-11-05T21:53:11.051Z,70.71
2022-11-05T21:57:33.651Z,70.64
2022-11-05T22:01:37.765Z,70.53
2022-11-05T22:05:42.374Z,71.25
2022-11-05T22:09:46.267Z,72.18
2022-11-05T22:13:49.998Z,73.04
2022-11-05T22:17:53.005Z,72.65
2022-11-05T22:21:58.840Z,72.26
2022-11-05T22:26:03.409Z,72.24
2022-11-05T22:30:07.748Z,72.42
2022-11-05T22:34:11.842Z,72.03
2022-11-05T22:38:16.739Z,71.92
2022-11-05T22:42:19.839Z,72.15
2022-11-05T22:46:25.452Z,71.85
2022-11-05T22:50:28.564Z,71.44
2022-11-05T22:54:38.843Z,71.83
2022-11-05T22:58:43.205Z,72.15
2022-11-05T23:02:46.935Z,72.67
2022-11-05T23:07:07.711Z,72.60
2022-11-05T23:11:34.645Z,73.12
2022-11-05T23:15:54.945Z,72.76
2022-11-05T23:20:16.108Z,73.33
2022-11-05T23:24:19.464Z,72.92
2022-11-05T23:28:24.400Z,72.85
2022-11-05T23:32:28.625Z,72.44
2022-11-05T23:36:49.390Z,73.10
2022-11-05T23:41:09.847Z,74.05
2022-11-05T23:45:32.478Z,74.50
2022-11-05T23:49:35.824Z,74.34
2022-11-05T23:53:41.701Z,74.33
2022-11-05T23:57:44.722Z,74.23
